createdAt,value
2018-10-03T00:18:40.696Z,18.77
2018-10-03T01:18:34.417Z,15.83
2018-10-03T01:24:06.877Z,17.53
2018-10-03T02:12:14.536Z,30.19
2018-10-03T02:23:41.114Z,30.32
2018-10-03T03:23:22.438Z,30.15
2018-10-03T03:25:50.680Z,30.36
2018-10-03T03:28:18.943Z,30.30
2018-10-03T03:30:47.239Z,30.39
2018-10-03T03:33:15.516Z,30.79
2018-10-03T03:35:43.828Z,30.48
2018-10-03T03:38:12.094Z,30.88
2018-10-03T03:40:40.345Z,30.95
2018-10-03T03:43:08.609Z,30.87
2018-10-03T03:45:36.869Z,31.00
2018-10-03T03:48:05.137Z,31.06
2018-10-03T03:50:33.373Z,30.93
2018-10-03T03:53:01.625Z,31.15
2018-10-03T03:55:29.901Z,31.40
2018-10-03T03:57:58.166Z,31.62
2018-10-03T04:00:26.474Z,31.46
2018-10-03T04:02:54.736Z,31.33
2018-10-03T04:05:23.049Z,31.49
2018-10-03T04:07:51.304Z,31.41
2018-10-03T04:10:19.546Z,31.62
2018-10-03T04:24:51.146Z,31.69
2018-10-03T04:27:19.446Z,31.64
2018-10-03T04:29:47.682Z,31.81
2018-10-03T04:32:15.940Z,31.71
2018-10-03T04:34:44.217Z,31.63
2018-10-03T04:37:12.474Z,31.66
2018-10-03T04:39:40.717Z,31.55
2018-10-03T04:42:08.994Z,31.48
2018-10-03T04:44:37.247Z,31.58
2018-10-03T04:47:05.544Z,31.60
2018-10-03T04:49:33.809Z,31.62
2018-10-03T04:52:02.050Z,31.95
2018-10-03T04:54:30.325Z,32.20
2018-10-03T04:56:58.577Z,32.31
2018-10-03T04:59:26.880Z,32.55
2018-10-03T05:01:55.131Z,32.85
2018-10-03T05:04:23.418Z,33.23
2018-10-03T05:06:51.700Z,33.32
2018-10-03T05:09:19.964Z,33.60
2018-10-03T05:11:48.237Z,33.52
2018-10-03T05:14:16.503Z,33.74
2018-10-03T05:16:44.797Z,33.91
2018-10-03T05:19:13.054Z,34.04
2018-10-03T05:21:41.309Z,34.19
2018-10-03T05:24:09.618Z,34.10
2018-10-03T05:26:37.900Z,34.20
2018-10-03T05:29:06.207Z,34.34
2018-10-03T05:31:34.555Z,34.07
2018-10-03T05:34:02.824Z,34.08
2018-10-03T05:36:31.090Z,34.06
2018-10-03T05:38:59.329Z,34.34
2018-10-03T05:41:27.593Z,34.33
2018-10-03T05:43:55.864Z,34.15
2018-10-03T05:46:24.105Z,33.91
2018-10-03T05:48:52.500Z,33.69
2018-10-03T05:51:20.690Z,33.67
2018-10-03T05:53:48.989Z,33.70
2018-10-03T05:56:17.258Z,34.02
2018-10-03T05:58:45.538Z,34.22
2018-10-03T06:01:13.817Z,34.46
2018-10-03T06:03:42.089Z,34.66
2018-10-03T06:06:10.467Z,34.69
2018-10-03T06:08:38.741Z,35.05
2018-10-03T06:11:07.028Z,35.20
2018-10-03T06:19:42.199Z,36.03
2018-10-03T07:23:20.871Z,33.83
2018-10-03T10:14:51.033Z,96.93
2018-10-03T10:17:19.301Z,95.36
2018-10-03T10:22:52.213Z,96.80
2018-10-03T10:25:20.622Z,93.76
2018-10-03T10:27:48.897Z,91.65
2018-10-03T10:30:17.222Z,90.18
2018-10-03T10:32:45.545Z,87.31
2018-10-03T10:35:13.764Z,85.89
2018-10-03T10:37:42.047Z,85.53
2018-10-03T10:40:10.361Z,84.27
2018-10-03T10:42:38.593Z,81.41
2018-10-03T10:45:07.172Z,78.14
2018-10-03T10:47:35.398Z,77.87
2018-10-03T10:50:03.677Z,75.34
2018-10-03T10:52:31.934Z,73.81
2018-10-03T10:55:00.194Z,71.15
2018-10-03T10:57:28.436Z,70.63
2018-10-03T10:59:56.699Z,66.84
2018-10-03T11:02:25.819Z,65.47
2018-10-03T11:04:54.050Z,64.27
2018-10-03T11:07:22.331Z,64.79
2018-10-03T11:09:50.609Z,63.16
2018-10-03T11:12:18.918Z,60.21
2018-10-03T11:23:53.152Z,56.55
2018-10-03T11:29:13.614Z,56.54
2018-10-03T11:31:41.861Z,54.00
2018-10-03T11:34:10.135Z,52.76
2018-10-03T11:36:38.367Z,51.92
2018-10-03T11:39:08.273Z,52.55
2018-10-03T11:41:36.612Z,52.46
2018-10-03T11:44:04.844Z,51.63
2018-10-03T11:46:33.081Z,50.39
2018-10-03T11:49:01.362Z,50.41
2018-10-03T11:51:29.657Z,49.70
2018-10-03T11:53:57.940Z,49.38
2018-10-03T11:56:26.258Z,48.70
2018-10-03T11:58:54.485Z,49.19
2018-10-03T12:01:22.737Z,49.37
2018-10-03T12:03:51.007Z,48.69
2018-10-03T12:06:19.293Z,48.43
2018-10-03T12:08:47.585Z,47.21
2018-10-03T12:11:15.905Z,47.43
2018-10-03T12:13:44.205Z,47.20
2018-10-03T13:28:27.217Z,44.40
2018-10-03T13:30:55.526Z,45.50
2018-10-03T13:33:23.801Z,46.74
2018-10-03T13:35:52.131Z,46.37
2018-10-03T13:38:20.345Z,44.31
2018-10-03T13:40:48.597Z,43.12
2018-10-03T13:43:16.857Z,44.31
2018-10-03T13:45:45.121Z,43.63
2018-10-03T13:48:13.358Z,42.27
2018-10-03T13:50:41.629Z,40.24
2018-10-03T13:53:09.878Z,42.16
2018-10-03T13:55:38.154Z,39.22
2018-10-03T13:58:06.495Z,38.15
2018-10-03T14:00:35.324Z,39.36
2018-10-03T14:03:03.571Z,39.83
2018-10-03T14:05:31.817Z,39.39
2018-10-03T14:08:00.093Z,37.08
2018-10-03T14:10:28.351Z,36.26
2018-10-03T14:13:00.417Z,35.54
2018-10-03T14:21:35.290Z,34.39
2018-10-03T15:27:58.873Z,59.63
2018-10-03T15:30:27.122Z,59.59
2018-10-03T15:32:55.377Z,58.90
2018-10-03T15:35:23.655Z,58.81
2018-10-03T15:37:51.990Z,57.83
2018-10-03T15:40:20.222Z,57.16
2018-10-03T15:42:48.467Z,55.79
2018-10-03T15:45:16.742Z,54.85
2018-10-03T15:47:44.992Z,54.07
2018-10-03T15:50:13.221Z,53.37
2018-10-03T15:52:41.458Z,52.68
2018-10-03T15:55:09.816Z,53.02
2018-10-03T15:57:37.997Z,53.45
2018-10-03T16:00:06.584Z,53.53
2018-10-03T16:02:34.844Z,52.49
2018-10-03T16:05:03.115Z,49.60
2018-10-03T16:07:31.361Z,47.14
2018-10-03T16:09:59.647Z,45.01
2018-10-03T16:12:27.944Z,43.56
2018-10-03T16:14:56.200Z,43.12
2018-10-03T16:17:24.441Z,42.32
2018-10-03T16:19:52.691Z,41.54
2018-10-03T16:22:20.938Z,39.15
2018-10-03T16:24:49.191Z,35.76
2018-10-03T16:27:17.497Z,30.95
2018-10-03T16:29:45.798Z,28.13
2018-10-03T16:32:14.096Z,27.46
2018-10-03T16:34:42.307Z,28.15
2018-10-03T16:37:10.542Z,28.70
2018-10-03T16:39:38.821Z,28.93
2018-10-03T16:42:07.125Z,29.56
2018-10-03T16:44:35.407Z,29.31
2018-10-03T16:47:03.676Z,29.46
2018-10-03T16:49:31.949Z,29.53
2018-10-03T16:52:00.205Z,29.53
2018-10-03T16:54:28.465Z,30.51
2018-10-03T16:56:56.787Z,30.72
2018-10-03T16:59:25.025Z,30.27
2018-10-03T17:01:53.293Z,30.17
2018-10-03T17:04:21.538Z,29.67
2018-10-03T17:06:49.857Z,29.65
2018-10-03T17:09:18.089Z,30.29
2018-10-03T17:11:46.346Z,30.22
2018-10-03T17:14:30.053Z,30.16
2018-10-03T17:16:58.350Z,29.77
2018-10-03T17:19:37.101Z,29.08
2018-10-03T17:22:05.508Z,28.84
2018-10-03T17:24:35.137Z,29.02
2018-10-03T17:29:55.701Z,28.53
2018-10-03T17:32:23.924Z,28.25
2018-10-03T17:34:52.161Z,28.05
2018-10-03T17:37:20.378Z,27.78
2018-10-03T17:39:48.625Z,27.82
2018-10-03T17:42:16.889Z,27.60
2018-10-03T17:44:45.175Z,27.03
2018-10-03T17:47:13.445Z,27.22
2018-10-03T17:49:41.726Z,28.21
2018-10-03T17:52:09.991Z,28.86
2018-10-03T17:54:38.277Z,29.24
2018-10-03T17:57:06.641Z,30.06
2018-10-03T17:59:34.920Z,31.68
2018-10-03T18:02:06.247Z,32.68
2018-10-03T18:04:34.562Z,34.66
2018-10-03T18:07:02.830Z,34.88
2018-10-03T18:09:31.078Z,34.62
2018-10-03T18:11:59.354Z,34.28
2018-10-03T18:14:40.772Z,32.28
2018-10-03T18:17:09.042Z,29.96
2018-10-03T18:22:30.332Z,27.99
2018-10-03T19:16:27.462Z,27.08
2018-10-03T19:18:55.677Z,27.13
2018-10-03T19:21:23.919Z,27.49
2018-10-03T19:26:46.218Z,27.86
2018-10-03T19:29:15.046Z,28.23
2018-10-03T19:31:43.337Z,28.76
2018-10-03T19:34:11.573Z,29.46
2018-10-03T19:36:39.829Z,30.48
2018-10-03T19:39:08.618Z,31.92
2018-10-03T19:41:37.135Z,33.75
2018-10-03T19:44:05.409Z,35.59
2018-10-03T19:46:33.690Z,36.02
2018-10-03T19:49:01.962Z,36.57
2018-10-03T19:51:30.289Z,36.61
2018-10-03T19:53:58.547Z,36.27
2018-10-03T19:56:26.817Z,35.76
2018-10-03T19:58:55.093Z,37.28
2018-10-03T20:01:23.345Z,38.63
2018-10-03T20:03:51.770Z,39.95
2018-10-03T20:06:19.998Z,41.95
2018-10-03T20:08:48.284Z,43.56
2018-10-03T20:11:16.553Z,44.60
2018-10-03T20:16:38.198Z,44.19
2018-10-03T20:19:06.749Z,43.90
2018-10-03T20:21:35.089Z,43.82
2018-10-03T20:24:04.153Z,43.98
2018-10-03T20:26:32.434Z,43.79
2018-10-03T20:29:00.651Z,43.79
2018-10-03T20:31:28.909Z,43.70
2018-10-03T20:33:57.156Z,42.96
2018-10-03T20:36:25.429Z,43.16
2018-10-03T20:38:53.677Z,43.48
2018-10-03T20:41:21.914Z,43.29
2018-10-03T20:43:50.161Z,42.00
2018-10-03T20:46:18.467Z,41.41
2018-10-03T20:48:47.621Z,40.75
2018-10-03T20:51:15.934Z,40.81
2018-10-03T20:53:44.179Z,41.50
2018-10-03T20:56:12.450Z,43.09
2018-10-03T20:58:40.709Z,43.85
2018-10-03T21:01:08.963Z,44.10
2018-10-03T21:03:37.238Z,43.92
2018-10-03T21:06:05.487Z,43.64
2018-10-03T21:08:33.746Z,43.32
2018-10-03T21:11:02.015Z,43.78
2018-10-03T21:13:30.290Z,43.44
2018-10-03T21:15:58.549Z,43.55
2018-10-03T21:18:26.790Z,43.76
2018-10-03T21:21:13.600Z,44.10
2018-10-03T21:23:53.832Z,44.28
2018-10-03T21:26:22.149Z,43.87
2018-10-03T21:28:50.462Z,43.48
2018-10-03T21:31:18.727Z,43.26
2018-10-03T21:33:47.016Z,40.95
2018-10-03T21:36:15.437Z,37.08
2018-10-03T21:38:43.733Z,36.82
2018-10-03T21:41:11.993Z,33.29
2018-10-03T21:43:40.262Z,31.21
2018-10-03T21:46:08.528Z,34.12
2018-10-03T21:48:36.780Z,32.36
2018-10-03T21:51:05.053Z,31.69
2018-10-03T21:53:33.333Z,31.36
2018-10-03T21:56:01.609Z,31.92
2018-10-03T21:58:29.934Z,31.63
2018-10-03T22:00:58.190Z,31.42
2018-10-03T22:03:26.443Z,31.11
2018-10-03T22:05:54.708Z,31.07
2018-10-03T22:08:22.957Z,30.99
2018-10-03T22:10:51.219Z,30.69
2018-10-03T22:25:09.865Z,30.38
